Sankuniki — JD2465 — position and weather

sailwx.info

Track history (hours):
 
Tides and Currents Weather Stations Pressure Air Temp Water Temp Dewpoint Dewpoint Depression Visibility Wind Speed Wind Dir Waves Ship Positions

Sankuniki

Last reported at 2016-Sep-17 18:28 UTC. Time now 2016-Sep-30 06:44 UTC.
Position N 35°26' E 140°41'.
Warning: this ship's position is 12 days out of date.

Length 71 m; draft 4.8 m.

Type: Cargo ship. MMSI: 431000269.

Date/timePositionNaut miles runAvg speedWind from/ knotsBaromVisibWave heightAir tempDewpointWater temp
2016-Sep-17 18:28N 35°26' E 140°41'5511.1
2016-Sep-17 13:33N 34°55' E 139°46'1111.3
2016-Sep-17 12:32N 35°07' E 139°45'18 8.8
2016-Sep-17 10:28N 35°24' E 139°37'0 0.0
2016-Sep-17 09:31N 35°24' E 139°37'0 0.0
2016-Sep-17 08:31N 35°24' E 139°37'0 0.0
2016-Sep-17 07:31N 35°24' E 139°37'0 0.1
2016-Sep-17 05:33N 35°24' E 139°38'1 0.8
2016-Sep-17 04:33N 35°24' E 139°39'2 0.5
2016-Sep-17 00:33N 35°22' E 139°40'0 0.0
2016-Sep-16 17:33N 35°22' E 139°40'0 0.1
2016-Sep-16 15:33N 35°22' E 139°40'0 0.0
2016-Sep-16 12:33N 35°22' E 139°40'0 0.0
2016-Sep-16 09:33N 35°22' E 139°40'2 0.8
2016-Sep-16 07:33N 35°23' E 139°42'15 3.8
2016-Sep-16 03:32N 35°38' E 139°48'0 0.0
2016-Sep-16 02:32N 35°37' E 139°48'0 0.0
2016-Sep-16 00:32N 35°38' E 139°48'0 0.0
2016-Sep-15 22:32N 35°38' E 139°48'4 3.9
2016-Sep-15 21:33N 35°35' E 139°51'1 0.7
2016-Sep-15 20:34N 35°34' E 139°51'0 0.1
2016-Sep-15 18:33N 35°34' E 139°51'  
Track history (hours):
 
Tides and Currents Weather Stations Pressure Air Temp Water Temp Dewpoint Dewpoint Depression Visibility Wind Speed Wind Dir Waves Ship Positions

Sankuniki

Last reported at 2016-Sep-17 18:28 UTC. Time now 2016-Sep-30 06:44 UTC.
Position N 35°26' E 140°41'.
Warning: this ship's position is 12 days out of date.

Length 71 m; draft 4.8 m.

Type: Cargo ship. MMSI: 431000269.

Date/timePositionNaut miles runAvg speedWind from/ knotsBaromVisibWave heightAir tempDewpointWater temp
2016-Sep-17 18:28N 35°26' E 140°41'5511.1
2016-Sep-17 13:33N 34°55' E 139°46'1111.3
2016-Sep-17 12:32N 35°07' E 139°45'18 8.8
2016-Sep-17 10:28N 35°24' E 139°37'0 0.0
2016-Sep-17 09:31N 35°24' E 139°37'0 0.0
2016-Sep-17 08:31N 35°24' E 139°37'0 0.0
2016-Sep-17 07:31N 35°24' E 139°37'0 0.1
2016-Sep-17 05:33N 35°24' E 139°38'1 0.8
2016-Sep-17 04:33N 35°24' E 139°39'2 0.5
2016-Sep-17 00:33N 35°22' E 139°40'0 0.0
2016-Sep-16 17:33N 35°22' E 139°40'0 0.1
2016-Sep-16 15:33N 35°22' E 139°40'0 0.0
2016-Sep-16 12:33N 35°22' E 139°40'0 0.0
2016-Sep-16 09:33N 35°22' E 139°40'2 0.8
2016-Sep-16 07:33N 35°23' E 139°42'15 3.8
2016-Sep-16 03:32N 35°38' E 139°48'0 0.0
2016-Sep-16 02:32N 35°37' E 139°48'0 0.0
2016-Sep-16 00:32N 35°38' E 139°48'0 0.0
2016-Sep-15 22:32N 35°38' E 139°48'4 3.9
2016-Sep-15 21:33N 35°35' E 139°51'1 0.7
2016-Sep-15 20:34N 35°34' E 139°51'0 0.1
2016-Sep-15 18:33N 35°34' E 139°51'  

Dump ship's entire track history